Terminal Aerodrome Forecast
Issued by NWS

Home | Current Version | Previous Version | Text Only | Print | Product List | Glossary On
Versions: 1 2 3 4 5 6 7 8 9 10 11 12 13 14 15 16 17 18 19 20 21 22 23 24 25
000
FTUS46 KMTR 180546
TAFSFO
TAF
KSFO 180546Z 1806/1912 03006KT P6SM BKN120 OVC150
     FM181500 15012KT 6SM BR BKN060 OVC100
     FM181800 17018KT 5SM -RA BR OVC025
     FM182200 16020G30KT 3SM RA BR OVC025
     FM190000 27015G25KT 5SM SHRA BR OVC015
     FM190600 27015KT 6SM -SHRA BR OVC012=

USA.gov is the U.S. government's official web portal to all federal, state and local government web resources and services.